sensor_id;sensor_type;location;lat;lon;timestamp;temperature;humidity
28548;DHT22;15750;49.600;8.746;2022-12-11T00:00:08;11.30;42.00
28548;DHT22;15750;49.600;8.746;2022-12-11T00:02:57;11.30;41.90
28548;DHT22;15750;49.600;8.746;2022-12-11T00:05:45;11.20;41.90
28548;DHT22;15750;49.600;8.746;2022-12-11T00:08:34;11.20;41.80
28548;DHT22;15750;49.600;8.746;2022-12-11T00:11:22;11.20;41.80
28548;DHT22;15750;49.600;8.746;2022-12-11T00:14:12;11.20;41.80
28548;DHT22;15750;49.600;8.746;2022-12-11T00:17:00;11.20;41.70
28548;DHT22;15750;49.600;8.746;2022-12-11T00:19:48;11.10;41.90
28548;DHT22;15750;49.600;8.746;2022-12-11T00:22:35;11.20;42.10
28548;DHT22;15750;49.600;8.746;2022-12-11T00:25:24;11.20;42.00
28548;DHT22;15750;49.600;8.746;2022-12-11T00:28:15;11.20;42.00
28548;DHT22;15750;49.600;8.746;2022-12-11T00:31:04;11.10;42.00
28548;DHT22;15750;49.600;8.746;2022-12-11T00:33:52;11.20;42.20
28548;DHT22;15750;49.600;8.746;2022-12-11T00:36:40;11.10;42.10
28548;DHT22;15750;49.600;8.746;2022-12-11T00:39:27;11.10;42.10
28548;DHT22;15750;49.600;8.746;2022-12-11T00:42:18;11.10;42.10
28548;DHT22;15750;49.600;8.746;2022-12-11T00:45:07;11.20;42.00
28548;DHT22;15750;49.600;8.746;2022-12-11T00:47:56;11.20;42.10
28548;DHT22;15750;49.600;8.746;2022-12-11T00:50:44;11.20;42.10
28548;DHT22;15750;49.600;8.746;2022-12-11T00:53:32;11.20;42.20
28548;DHT22;15750;49.600;8.746;2022-12-11T00:56:21;11.20;42.20
28548;DHT22;15750;49.600;8.746;2022-12-11T00:59:11;11.20;42.20
28548;DHT22;15750;49.600;8.746;2022-12-11T01:01:59;11.20;42.10
28548;DHT22;15750;49.600;8.746;2022-12-11T01:04:46;11.20;42.10
28548;DHT22;15750;49.600;8.746;2022-12-11T01:07:34;11.20;42.00
28548;DHT22;15750;49.600;8.746;2022-12-11T01:10:22;11.20;42.00
28548;DHT22;15750;49.600;8.746;2022-12-11T01:13:10;11.20;42.10
28548;DHT22;15750;49.600;8.746;2022-12-11T01:16:05;11.20;42.20
28548;DHT22;15750;49.600;8.746;2022-12-11T01:18:54;11.20;42.00
28548;DHT22;15750;49.600;8.746;2022-12-11T01:21:43;11.20;42.10
28548;DHT22;15750;49.600;8.746;2022-12-11T01:24:30;11.20;42.10
28548;DHT22;15750;49.600;8.746;2022-12-11T01:27:18;11.20;42.00
28548;DHT22;15750;49.600;8.746;2022-12-11T01:30:08;11.20;42.00
28548;DHT22;15750;49.600;8.746;2022-12-11T01:32:57;11.20;42.00
28548;DHT22;15750;49.600;8.746;2022-12-11T01:35:44;11.20;42.10
28548;DHT22;15750;49.600;8.746;2022-12-11T01:38:32;11.20;42.00
28548;DHT22;15750;49.600;8.746;2022-12-11T01:41:20;11.20;42.00
28548;DHT22;15750;49.600;8.746;2022-12-11T01:47:48;11.20;42.10
28548;DHT22;15750;49.600;8.746;2022-12-11T01:50:43;11.20;42.20
28548;DHT22;15750;49.600;8.746;2022-12-11T01:53:34;11.20;42.20
28548;DHT22;15750;49.600;8.746;2022-12-11T01:56:24;11.20;42.20
28548;DHT22;15750;49.600;8.746;2022-12-11T01:59:16;11.20;42.20
28548;DHT22;15750;49.600;8.746;2022-12-11T02:02:07;11.20;42.20
28548;DHT22;15750;49.600;8.746;2022-12-11T02:04:56;11.20;42.20
28548;DHT22;15750;49.600;8.746;2022-12-11T02:07:50;11.20;42.40
28548;DHT22;15750;49.600;8.746;2022-12-11T02:10:50;11.20;42.30
28548;DHT22;15750;49.600;8.746;2022-12-11T02:13:45;11.20;42.20
28548;DHT22;15750;49.600;8.746;2022-12-11T02:16:41;11.20;42.20
28548;DHT22;15750;49.600;8.746;2022-12-11T02:19:46;11.20;42.30
28548;DHT22;15750;49.600;8.746;2022-12-11T02:22:57;11.20;42.10
28548;DHT22;15750;49.600;8.746;2022-12-11T02:26:05;11.20;42.10
28548;DHT22;15750;49.600;8.746;2022-12-11T02:29:01;11.20;42.30
28548;DHT22;15750;49.600;8.746;2022-12-11T02:31:53;11.20;42.40
28548;DHT22;15750;49.600;8.746;2022-12-11T02:34:46;11.20;42.40
28548;DHT22;15750;49.600;8.746;2022-12-11T02:37:38;11.20;43.10
28548;DHT22;15750;49.600;8.746;2022-12-11T02:40:30;11.20;42.40
28548;DHT22;15750;49.600;8.746;2022-12-11T02:43:24;11.20;42.30
28548;DHT22;15750;49.600;8.746;2022-12-11T02:46:17;11.20;42.30
28548;DHT22;15750;49.600;8.746;2022-12-11T02:49:14;11.30;42.30
28548;DHT22;15750;49.600;8.746;2022-12-11T02:52:11;11.30;42.20
28548;DHT22;15750;49.600;8.746;2022-12-11T02:55:01;11.30;42.20
28548;DHT22;15750;49.600;8.746;2022-12-11T02:57:58;11.30;42.20
28548;DHT22;15750;49.600;8.746;2022-12-11T03:00:50;11.20;42.20
28548;DHT22;15750;49.600;8.746;2022-12-11T03:03:42;11.20;42.30
28548;DHT22;15750;49.600;8.746;2022-12-11T03:06:35;11.20;42.30
28548;DHT22;15750;49.600;8.746;2022-12-11T03:09:26;11.30;42.40
28548;DHT22;15750;49.600;8.746;2022-12-11T03:12:18;11.20;42.30
28548;DHT22;15750;49.600;8.746;2022-12-11T03:15:12;11.20;42.30
28548;DHT22;15750;49.600;8.746;2022-12-11T03:18:07;11.20;42.30
28548;DHT22;15750;49.600;8.746;2022-12-11T03:21:04;11.20;42.30
28548;DHT22;15750;49.600;8.746;2022-12-11T03:23:59;11.20;43.10
28548;DHT22;15750;49.600;8.746;2022-12-11T03:26:53;11.20;42.50
28548;DHT22;15750;49.600;8.746;2022-12-11T03:29:52;11.20;42.50
28548;DHT22;15750;49.600;8.746;2022-12-11T03:32:46;11.20;42.40
28548;DHT22;15750;49.600;8.746;2022-12-11T03:35:38;11.20;42.50
28548;DHT22;15750;49.600;8.746;2022-12-11T03:38:32;11.20;42.50
28548;DHT22;15750;49.600;8.746;2022-12-11T03:41:25;11.20;43.20
28548;DHT22;15750;49.600;8.746;2022-12-11T03:44:16;11.20;42.60
28548;DHT22;15750;49.600;8.746;2022-12-11T03:47:07;11.20;42.70
28548;DHT22;15750;49.600;8.746;2022-12-11T03:49:55;11.20;42.70
28548;DHT22;15750;49.600;8.746;2022-12-11T03:52:45;11.20;42.70
28548;DHT22;15750;49.600;8.746;2022-12-11T03:55:37;11.20;42.70
28548;DHT22;15750;49.600;8.746;2022-12-11T03:58:25;11.30;42.70
28548;DHT22;15750;49.600;8.746;2022-12-11T04:01:13;11.30;42.70
28548;DHT22;15750;49.600;8.746;2022-12-11T04:04:02;11.30;42.60
28548;DHT22;15750;49.600;8.746;2022-12-11T04:06:50;11.30;42.60
28548;DHT22;15750;49.600;8.746;2022-12-11T04:09:37;11.30;42.60
28548;DHT22;15750;49.600;8.746;2022-12-11T04:12:26;11.30;42.60
28548;DHT22;15750;49.600;8.746;2022-12-11T04:15:14;11.30;42.70
28548;DHT22;15750;49.600;8.746;2022-12-11T04:18:02;11.30;42.70
28548;DHT22;15750;49.600;8.746;2022-12-11T04:21:08;11.30;42.80
28548;DHT22;15750;49.600;8.746;2022-12-11T04:24:22;11.30;42.80
28548;DHT22;15750;49.600;8.746;2022-12-11T04:27:10;11.30;42.80
28548;DHT22;15750;49.600;8.746;2022-12-11T04:29:59;11.30;42.90
28548;DHT22;15750;49.600;8.746;2022-12-11T04:32:47;11.30;42.90
28548;DHT22;15750;49.600;8.746;2022-12-11T04:35:35;11.30;42.90
28548;DHT22;15750;49.600;8.746;2022-12-11T04:38:25;11.30;43.00
28548;DHT22;15750;49.600;8.746;2022-12-11T04:41:14;11.30;43.10
28548;DHT22;15750;49.600;8.746;2022-12-11T04:44:02;11.30;43.10
28548;DHT22;15750;49.600;8.746;2022-12-11T04:46:51;11.30;43.20
28548;DHT22;15750;49.600;8.746;2022-12-11T04:49:39;11.30;43.20
28548;DHT22;15750;49.600;8.746;2022-12-11T04:52:27;11.30;43.20
28548;DHT22;15750;49.600;8.746;2022-12-11T04:55:15;11.30;43.10
28548;DHT22;15750;49.600;8.746;2022-12-11T04:58:02;11.40;43.10
28548;DHT22;15750;49.600;8.746;2022-12-11T05:00:50;11.40;43.10
28548;DHT22;15750;49.600;8.746;2022-12-11T05:03:40;11.40;43.10
28548;DHT22;15750;49.600;8.746;2022-12-11T05:06:28;11.40;43.10
28548;DHT22;15750;49.600;8.746;2022-12-11T05:09:16;11.40;43.10
28548;DHT22;15750;49.600;8.746;2022-12-11T05:12:05;11.40;43.00
28548;DHT22;15750;49.600;8.746;2022-12-11T05:14:54;11.40;43.00
28548;DHT22;15750;49.600;8.746;2022-12-11T05:17:42;11.40;43.00
28548;DHT22;15750;49.600;8.746;2022-12-11T05:20:31;11.40;43.00
28548;DHT22;15750;49.600;8.746;2022-12-11T05:23:19;11.40;43.00
28548;DHT22;15750;49.600;8.746;2022-12-11T05:26:09;11.40;43.00
28548;DHT22;15750;49.600;8.746;2022-12-11T05:28:58;11.40;43.10
28548;DHT22;15750;49.600;8.746;2022-12-11T05:31:46;11.40;43.00
28548;DHT22;15750;49.600;8.746;2022-12-11T05:34:34;11.40;43.00
28548;DHT22;15750;49.600;8.746;2022-12-11T05:37:23;11.40;43.00
28548;DHT22;15750;49.600;8.746;2022-12-11T05:40:11;11.40;43.10
28548;DHT22;15750;49.600;8.746;2022-12-11T05:43:00;11.40;43.10
28548;DHT22;15750;49.600;8.746;2022-12-11T05:45:48;11.40;43.10
28548;DHT22;15750;49.600;8.746;2022-12-11T05:48:36;11.40;43.20
28548;DHT22;15750;49.600;8.746;2022-12-11T05:51:24;11.40;43.30
28548;DHT22;15750;49.600;8.746;2022-12-11T05:54:14;11.40;43.30
28548;DHT22;15750;49.600;8.746;2022-12-11T05:57:02;11.40;43.40
28548;DHT22;15750;49.600;8.746;2022-12-11T05:59:50;11.40;43.40
28548;DHT22;15750;49.600;8.746;2022-12-11T06:02:37;11.40;43.40
28548;DHT22;15750;49.600;8.746;2022-12-11T06:05:25;11.40;43.40
28548;DHT22;15750;49.600;8.746;2022-12-11T06:08:13;11.40;43.40
28548;DHT22;15750;49.600;8.746;2022-12-11T06:11:03;11.40;43.40
28548;DHT22;15750;49.600;8.746;2022-12-11T06:13:52;11.50;43.60
28548;DHT22;15750;49.600;8.746;2022-12-11T06:16:39;11.50;43.50
28548;DHT22;15750;49.600;8.746;2022-12-11T06:19:27;11.50;43.50
28548;DHT22;15750;49.600;8.746;2022-12-11T06:22:21;11.50;43.50
28548;DHT22;15750;49.600;8.746;2022-12-11T06:25:08;11.50;43.50
28548;DHT22;15750;49.600;8.746;2022-12-11T06:27:58;11.50;43.40
28548;DHT22;15750;49.600;8.746;2022-12-11T06:30:45;11.60;43.30
28548;DHT22;15750;49.600;8.746;2022-12-11T06:33:33;11.50;43.20
28548;DHT22;15750;49.600;8.746;2022-12-11T06:36:23;11.50;43.10
28548;DHT22;15750;49.600;8.746;2022-12-11T06:39:11;11.50;43.00
28548;DHT22;15750;49.600;8.746;2022-12-11T06:42:01;11.50;42.90
28548;DHT22;15750;49.600;8.746;2022-12-11T06:44:50;11.50;43.00
28548;DHT22;15750;49.600;8.746;2022-12-11T06:47:38;11.50;43.50
28548;DHT22;15750;49.600;8.746;2022-12-11T06:50:25;11.50;43.00
28548;DHT22;15750;49.600;8.746;2022-12-11T06:53:14;11.50;43.00
28548;DHT22;15750;49.600;8.746;2022-12-11T06:56:03;11.50;43.00
28548;DHT22;15750;49.600;8.746;2022-12-11T06:59:03;11.40;42.90
28548;DHT22;15750;49.600;8.746;2022-12-11T07:01:53;11.40;42.90
28548;DHT22;15750;49.600;8.746;2022-12-11T07:04:23;11.40;43.10
28548;DHT22;15750;49.600;8.746;2022-12-11T07:06:53;11.40;43.10
28548;DHT22;15750;49.600;8.746;2022-12-11T07:09:23;11.40;43.20
28548;DHT22;15750;49.600;8.746;2022-12-11T07:11:52;11.40;43.20
28548;DHT22;15750;49.600;8.746;2022-12-11T07:14:22;11.40;43.20
28548;DHT22;15750;49.600;8.746;2022-12-11T07:16:52;11.40;43.20
28548;DHT22;15750;49.600;8.746;2022-12-11T07:19:22;11.50;43.30
28548;DHT22;15750;49.600;8.746;2022-12-11T07:21:57;11.50;43.30
28548;DHT22;15750;49.600;8.746;2022-12-11T07:24:29;11.40;43.20
28548;DHT22;15750;49.600;8.746;2022-12-11T07:26:59;11.40;43.10
28548;DHT22;15750;49.600;8.746;2022-12-11T07:29:29;11.40;43.10
28548;DHT22;15750;49.600;8.746;2022-12-11T07:32:00;11.50;43.10
28548;DHT22;15750;49.600;8.746;2022-12-11T07:34:29;11.50;43.10
28548;DHT22;15750;49.600;8.746;2022-12-11T07:37:00;11.50;43.10
28548;DHT22;15750;49.600;8.746;2022-12-11T07:39:29;11.50;43.30
28548;DHT22;15750;49.600;8.746;2022-12-11T07:41:59;11.40;43.30
28548;DHT22;15750;49.600;8.746;2022-12-11T07:44:29;11.40;43.30
28548;DHT22;15750;49.600;8.746;2022-12-11T07:47:01;11.40;43.30
28548;DHT22;15750;49.600;8.746;2022-12-11T07:49:31;11.40;43.30
28548;DHT22;15750;49.600;8.746;2022-12-11T07:52:00;11.40;43.30
28548;DHT22;15750;49.600;8.746;2022-12-11T07:54:29;11.40;43.40
28548;DHT22;15750;49.600;8.746;2022-12-11T07:56:58;11.40;43.40
28548;DHT22;15750;49.600;8.746;2022-12-11T07:59:27;11.40;43.40
28548;DHT22;15750;49.600;8.746;2022-12-11T08:01:57;11.40;43.40
28548;DHT22;15750;49.600;8.746;2022-12-11T08:04:28;11.40;43.40
28548;DHT22;15750;49.600;8.746;2022-12-11T08:06:57;11.50;43.40
28548;DHT22;15750;49.600;8.746;2022-12-11T08:09:26;11.50;43.40
28548;DHT22;15750;49.600;8.746;2022-12-11T08:11:56;11.50;43.50
28548;DHT22;15750;49.600;8.746;2022-12-11T08:14:25;11.50;43.60
28548;DHT22;15750;49.600;8.746;2022-12-11T08:16:54;11.40;43.60
28548;DHT22;15750;49.600;8.746;2022-12-11T08:19:36;11.50;43.60
28548;DHT22;15750;49.600;8.746;2022-12-11T08:22:05;11.50;43.80
28548;DHT22;15750;49.600;8.746;2022-12-11T08:24:35;11.50;43.70
28548;DHT22;15750;49.600;8.746;2022-12-11T08:27:05;11.50;44.30
28548;DHT22;15750;49.600;8.746;2022-12-11T08:29:34;11.50;43.70
28548;DHT22;15750;49.600;8.746;2022-12-11T08:32:03;11.50;43.70
28548;DHT22;15750;49.600;8.746;2022-12-11T08:34:40;11.50;43.70
28548;DHT22;15750;49.600;8.746;2022-12-11T08:37:09;11.50;43.70
28548;DHT22;15750;49.600;8.746;2022-12-11T08:39:41;11.50;43.60
28548;DHT22;15750;49.600;8.746;2022-12-11T08:42:11;11.50;43.80
28548;DHT22;15750;49.600;8.746;2022-12-11T08:44:41;11.50;43.80
28548;DHT22;15750;49.600;8.746;2022-12-11T08:47:10;11.50;43.90
28548;DHT22;15750;49.600;8.746;2022-12-11T08:49:40;11.50;44.00
28548;DHT22;15750;49.600;8.746;2022-12-11T08:52:09;11.50;44.00
28548;DHT22;15750;49.600;8.746;2022-12-11T08:54:39;11.50;44.00
28548;DHT22;15750;49.600;8.746;2022-12-11T08:57:08;11.50;44.00
28548;DHT22;15750;49.600;8.746;2022-12-11T08:59:37;11.60;44.10
28548;DHT22;15750;49.600;8.746;2022-12-11T09:02:08;11.60;44.10
28548;DHT22;15750;49.600;8.746;2022-12-11T09:04:40;11.60;44.10
28548;DHT22;15750;49.600;8.746;2022-12-11T09:07:09;11.60;44.00
28548;DHT22;15750;49.600;8.746;2022-12-11T09:09:38;11.70;44.00
28548;DHT22;15750;49.600;8.746;2022-12-11T09:12:07;11.60;43.90
28548;DHT22;15750;49.600;8.746;2022-12-11T09:14:36;11.70;44.00
28548;DHT22;15750;49.600;8.746;2022-12-11T09:17:06;11.70;43.90
28548;DHT22;15750;49.600;8.746;2022-12-11T09:19:35;11.70;44.00
28548;DHT22;15750;49.600;8.746;2022-12-11T09:22:05;11.70;44.10
28548;DHT22;15750;49.600;8.746;2022-12-11T09:24:37;11.70;44.00
28548;DHT22;15750;49.600;8.746;2022-12-11T09:27:07;11.70;44.00
28548;DHT22;15750;49.600;8.746;2022-12-11T09:29:36;11.70;44.00
28548;DHT22;15750;49.600;8.746;2022-12-11T09:32:06;11.70;44.00
28548;DHT22;15750;49.600;8.746;2022-12-11T09:34:35;11.70;43.90
28548;DHT22;15750;49.600;8.746;2022-12-11T09:37:05;11.70;43.90
28548;DHT22;15750;49.600;8.746;2022-12-11T09:39:35;11.70;43.90
28548;DHT22;15750;49.600;8.746;2022-12-11T09:42:09;11.80;43.90
28548;DHT22;15750;49.600;8.746;2022-12-11T09:44:45;11.80;44.00
28548;DHT22;15750;49.600;8.746;2022-12-11T09:47:22;11.80;44.00
28548;DHT22;15750;49.600;8.746;2022-12-11T09:50:02;11.80;43.90
28548;DHT22;15750;49.600;8.746;2022-12-11T09:52:36;11.80;43.90
28548;DHT22;15750;49.600;8.746;2022-12-11T09:55:13;11.80;43.80
28548;DHT22;15750;49.600;8.746;2022-12-11T09:57:50;11.80;43.90
28548;DHT22;15750;49.600;8.746;2022-12-11T10:00:27;11.80;43.90
28548;DHT22;15750;49.600;8.746;2022-12-11T10:06:24;11.80;43.90
28548;DHT22;15750;49.600;8.746;2022-12-11T10:09:07;11.80;43.80
28548;DHT22;15750;49.600;8.746;2022-12-11T10:11:54;11.80;43.80
28548;DHT22;15750;49.600;8.746;2022-12-11T10:14:37;11.80;43.90
28548;DHT22;15750;49.600;8.746;2022-12-11T10:17:16;11.90;44.00
28548;DHT22;15750;49.600;8.746;2022-12-11T10:19:47;11.80;43.90
28548;DHT22;15750;49.600;8.746;2022-12-11T10:22:20;11.80;43.90
28548;DHT22;15750;49.600;8.746;2022-12-11T10:24:55;11.80;43.80
28548;DHT22;15750;49.600;8.746;2022-12-11T10:27:41;11.80;44.00
28548;DHT22;15750;49.600;8.746;2022-12-11T10:30:15;11.90;43.80
28548;DHT22;15750;49.600;8.746;2022-12-11T10:32:51;11.90;43.80
28548;DHT22;15750;49.600;8.746;2022-12-11T10:35:34;11.90;43.80
28548;DHT22;15750;49.600;8.746;2022-12-11T10:38:13;11.80;43.80
28548;DHT22;15750;49.600;8.746;2022-12-11T10:40:49;11.80;43.90
28548;DHT22;15750;49.600;8.746;2022-12-11T10:43:18;11.90;43.80
28548;DHT22;15750;49.600;8.746;2022-12-11T10:45:52;11.90;43.90
28548;DHT22;15750;49.600;8.746;2022-12-11T10:48:22;11.90;43.90
28548;DHT22;15750;49.600;8.746;2022-12-11T10:50:58;11.90;43.80
28548;DHT22;15750;49.600;8.746;2022-12-11T10:53:29;11.90;43.80
28548;DHT22;15750;49.600;8.746;2022-12-11T10:56:01;11.90;43.80
28548;DHT22;15750;49.600;8.746;2022-12-11T10:58:31;11.90;43.80
28548;DHT22;15750;49.600;8.746;2022-12-11T11:01:07;11.90;43.80
28548;DHT22;15750;49.600;8.746;2022-12-11T11:03:52;11.90;43.70
28548;DHT22;15750;49.600;8.746;2022-12-11T11:06:24;11.90;43.80
28548;DHT22;15750;49.600;8.746;2022-12-11T11:08:55;11.90;43.80
28548;DHT22;15750;49.600;8.746;2022-12-11T11:11:29;11.90;43.80
28548;DHT22;15750;49.600;8.746;2022-12-11T11:14:06;11.90;43.80
28548;DHT22;15750;49.600;8.746;2022-12-11T11:16:41;11.90;43.90
28548;DHT22;15750;49.600;8.746;2022-12-11T11:19:22;11.90;43.80
28548;DHT22;15750;49.600;8.746;2022-12-11T11:21:55;11.90;43.80
28548;DHT22;15750;49.600;8.746;2022-12-11T11:24:39;11.90;43.80
28548;DHT22;15750;49.600;8.746;2022-12-11T11:27:27;12.00;43.80
28548;DHT22;15750;49.600;8.746;2022-12-11T11:29:59;12.00;43.80
28548;DHT22;15750;49.600;8.746;2022-12-11T11:32:32;12.00;43.80
28548;DHT22;15750;49.600;8.746;2022-12-11T11:35:16;12.00;43.80
28548;DHT22;15750;49.600;8.746;2022-12-11T11:37:55;12.00;43.90
28548;DHT22;15750;49.600;8.746;2022-12-11T11:40:29;12.00;44.00
28548;DHT22;15750;49.600;8.746;2022-12-11T11:43:14;12.00;44.00
28548;DHT22;15750;49.600;8.746;2022-12-11T11:45:51;12.00;43.90
28548;DHT22;15750;49.600;8.746;2022-12-11T11:48:32;12.00;43.90
28548;DHT22;15750;49.600;8.746;2022-12-11T11:51:15;12.00;43.90
28548;DHT22;15750;49.600;8.746;2022-12-11T11:53:48;12.00;44.10
28548;DHT22;15750;49.600;8.746;2022-12-11T11:56:21;12.00;44.10
28548;DHT22;15750;49.600;8.746;2022-12-11T11:59:06;12.00;44.10
28548;DHT22;15750;49.600;8.746;2022-12-11T12:01:43;12.00;44.00
28548;DHT22;15750;49.600;8.746;2022-12-11T12:04:13;12.00;44.00
28548;DHT22;15750;49.600;8.746;2022-12-11T12:06:58;12.00;44.10
28548;DHT22;15750;49.600;8.746;2022-12-11T12:09:45;12.10;44.30
28548;DHT22;15750;49.600;8.746;2022-12-11T12:12:27;12.10;44.20
28548;DHT22;15750;49.600;8.746;2022-12-11T12:15:14;12.10;44.20
28548;DHT22;15750;49.600;8.746;2022-12-11T12:17:52;12.10;44.20
28548;DHT22;15750;49.600;8.746;2022-12-11T12:20:30;12.10;44.20
28548;DHT22;15750;49.600;8.746;2022-12-11T12:26:24;12.10;44.40
28548;DHT22;15750;49.600;8.746;2022-12-11T12:29:05;12.10;44.30
28548;DHT22;15750;49.600;8.746;2022-12-11T12:31:52;12.10;44.40
28548;DHT22;15750;49.600;8.746;2022-12-11T12:34:40;12.10;44.40
28548;DHT22;15750;49.600;8.746;2022-12-11T12:37:23;12.10;44.40
28548;DHT22;15750;49.600;8.746;2022-12-11T12:40:08;12.10;44.40
28548;DHT22;15750;49.600;8.746;2022-12-11T12:42:47;12.10;44.20
28548;DHT22;15750;49.600;8.746;2022-12-11T12:45:26;12.10;44.10
28548;DHT22;15750;49.600;8.746;2022-12-11T12:47:58;12.10;44.20
28548;DHT22;15750;49.600;8.746;2022-12-11T12:50:36;12.10;44.20
28548;DHT22;15750;49.600;8.746;2022-12-11T12:53:08;12.10;44.40
28548;DHT22;15750;49.600;8.746;2022-12-11T12:55:41;12.10;44.30
28548;DHT22;15750;49.600;8.746;2022-12-11T12:58:27;12.10;44.30
28548;DHT22;15750;49.600;8.746;2022-12-11T13:01:06;12.10;44.40
28548;DHT22;15750;49.600;8.746;2022-12-11T13:03:52;12.20;44.40
28548;DHT22;15750;49.600;8.746;2022-12-11T13:06:32;12.10;44.40
28548;DHT22;15750;49.600;8.746;2022-12-11T13:09:15;12.20;44.40
28548;DHT22;15750;49.600;8.746;2022-12-11T13:11:52;12.20;44.50
28548;DHT22;15750;49.600;8.746;2022-12-11T13:14:27;12.20;44.40
28548;DHT22;15750;49.600;8.746;2022-12-11T13:17:19;12.20;44.40
28548;DHT22;15750;49.600;8.746;2022-12-11T13:20:15;12.20;44.40
28548;DHT22;15750;49.600;8.746;2022-12-11T13:22:54;12.20;44.50
28548;DHT22;15750;49.600;8.746;2022-12-11T13:25:50;12.20;44.40
28548;DHT22;15750;49.600;8.746;2022-12-11T13:28:26;12.20;44.40
28548;DHT22;15750;49.600;8.746;2022-12-11T13:31:01;12.20;44.30
28548;DHT22;15750;49.600;8.746;2022-12-11T13:33:40;12.20;44.30
28548;DHT22;15750;49.600;8.746;2022-12-11T13:36:25;12.20;44.40
28548;DHT22;15750;49.600;8.746;2022-12-11T13:39:00;12.20;44.30
28548;DHT22;15750;49.600;8.746;2022-12-11T13:41:33;12.20;44.30
28548;DHT22;15750;49.600;8.746;2022-12-11T13:44:05;12.20;44.20
28548;DHT22;15750;49.600;8.746;2022-12-11T13:46:36;12.20;44.20
28548;DHT22;15750;49.600;8.746;2022-12-11T13:49:18;12.20;44.20
28548;DHT22;15750;49.600;8.746;2022-12-11T13:51:53;12.20;44.20
28548;DHT22;15750;49.600;8.746;2022-12-11T13:54:24;12.20;44.30
28548;DHT22;15750;49.600;8.746;2022-12-11T13:57:02;12.20;44.30
28548;DHT22;15750;49.600;8.746;2022-12-11T13:59:42;12.20;44.30
28548;DHT22;15750;49.600;8.746;2022-12-11T14:02:20;12.30;44.30
28548;DHT22;15750;49.600;8.746;2022-12-11T14:04:54;12.20;44.30
28548;DHT22;15750;49.600;8.746;2022-12-11T14:07:29;12.20;44.30
28548;DHT22;15750;49.600;8.746;2022-12-11T14:10:02;12.20;44.40
28548;DHT22;15750;49.600;8.746;2022-12-11T14:12:35;12.20;44.30
28548;DHT22;15750;49.600;8.746;2022-12-11T14:15:05;12.30;44.30
28548;DHT22;15750;49.600;8.746;2022-12-11T14:17:41;12.20;44.40
28548;DHT22;15750;49.600;8.746;2022-12-11T14:20:20;12.20;44.40
28548;DHT22;15750;49.600;8.746;2022-12-11T14:23:03;12.20;44.40
28548;DHT22;15750;49.600;8.746;2022-12-11T14:25:33;12.20;44.40
28548;DHT22;15750;49.600;8.746;2022-12-11T14:28:03;12.20;44.40
28548;DHT22;15750;49.600;8.746;2022-12-11T14:30:49;12.20;44.40
28548;DHT22;15750;49.600;8.746;2022-12-11T14:33:23;12.20;44.40
28548;DHT22;15750;49.600;8.746;2022-12-11T14:35:54;12.30;44.40
28548;DHT22;15750;49.600;8.746;2022-12-11T14:38:27;12.20;44.30
28548;DHT22;15750;49.600;8.746;2022-12-11T14:41:02;12.30;44.30
28548;DHT22;15750;49.600;8.746;2022-12-11T14:43:36;12.20;44.30
28548;DHT22;15750;49.600;8.746;2022-12-11T14:46:09;12.20;44.30
28548;DHT22;15750;49.600;8.746;2022-12-11T14:48:46;12.20;44.40
28548;DHT22;15750;49.600;8.746;2022-12-11T14:51:28;12.30;44.50
28548;DHT22;15750;49.600;8.746;2022-12-11T14:54:03;12.30;44.40
28548;DHT22;15750;49.600;8.746;2022-12-11T14:56:33;12.20;44.40
28548;DHT22;15750;49.600;8.746;2022-12-11T14:59:05;12.20;44.90
28548;DHT22;15750;49.600;8.746;2022-12-11T15:01:36;12.20;44.40
28548;DHT22;15750;49.600;8.746;2022-12-11T15:04:21;12.20;44.40
28548;DHT22;15750;49.600;8.746;2022-12-11T15:06:51;12.20;44.40
28548;DHT22;15750;49.600;8.746;2022-12-11T15:09:25;12.30;44.30
28548;DHT22;15750;49.600;8.746;2022-12-11T15:12:05;12.20;44.40
28548;DHT22;15750;49.600;8.746;2022-12-11T15:14:44;12.20;44.40
28548;DHT22;15750;49.600;8.746;2022-12-11T15:17:16;12.20;44.40
28548;DHT22;15750;49.600;8.746;2022-12-11T15:19:48;12.20;44.40
28548;DHT22;15750;49.600;8.746;2022-12-11T15:22:20;12.20;44.40
28548;DHT22;15750;49.600;8.746;2022-12-11T15:24:53;12.20;44.40
28548;DHT22;15750;49.600;8.746;2022-12-11T15:27:28;12.20;44.40
28548;DHT22;15750;49.600;8.746;2022-12-11T15:30:19;12.20;44.40
28548;DHT22;15750;49.600;8.746;2022-12-11T15:33:18;12.20;44.50
28548;DHT22;15750;49.600;8.746;2022-12-11T15:35:55;12.20;44.50
28548;DHT22;15750;49.600;8.746;2022-12-11T15:38:33;12.20;44.50
28548;DHT22;15750;49.600;8.746;2022-12-11T15:41:11;12.20;44.50
28548;DHT22;15750;49.600;8.746;2022-12-11T15:43:42;12.20;44.40
28548;DHT22;15750;49.600;8.746;2022-12-11T15:46:12;12.20;44.40
28548;DHT22;15750;49.600;8.746;2022-12-11T15:48:42;12.10;45.00
28548;DHT22;15750;49.600;8.746;2022-12-11T15:51:11;12.10;44.30
28548;DHT22;15750;49.600;8.746;2022-12-11T15:53:40;12.10;44.40
28548;DHT22;15750;49.600;8.746;2022-12-11T15:56:12;12.20;44.40
28548;DHT22;15750;49.600;8.746;2022-12-11T15:58:43;12.10;44.30
28548;DHT22;15750;49.600;8.746;2022-12-11T16:01:14;12.10;44.30
28548;DHT22;15750;49.600;8.746;2022-12-11T16:03:44;12.10;44.40
28548;DHT22;15750;49.600;8.746;2022-12-11T16:06:13;12.10;44.40
28548;DHT22;15750;49.600;8.746;2022-12-11T16:08:42;12.10;44.40
28548;DHT22;15750;49.600;8.746;2022-12-11T16:11:13;12.10;44.30
28548;DHT22;15750;49.600;8.746;2022-12-11T16:13:44;12.10;44.40
28548;DHT22;15750;49.600;8.746;2022-12-11T16:16:14;12.10;44.30
28548;DHT22;15750;49.600;8.746;2022-12-11T16:18:43;12.10;44.20
28548;DHT22;15750;49.600;8.746;2022-12-11T16:21:12;12.10;44.20
28548;DHT22;15750;49.600;8.746;2022-12-11T16:23:47;12.10;44.90
28548;DHT22;15750;49.600;8.746;2022-12-11T16:26:18;12.10;44.20
28548;DHT22;15750;49.600;8.746;2022-12-11T16:28:47;12.10;44.10
28548;DHT22;15750;49.600;8.746;2022-12-11T16:31:16;12.10;44.10
28548;DHT22;15750;49.600;8.746;2022-12-11T16:33:46;12.10;44.10
28548;DHT22;15750;49.600;8.746;2022-12-11T16:36:17;12.10;44.20
28548;DHT22;15750;49.600;8.746;2022-12-11T16:38:48;12.10;44.20
28548;DHT22;15750;49.600;8.746;2022-12-11T16:41:22;12.10;44.20
28548;DHT22;15750;49.600;8.746;2022-12-11T16:43:52;12.10;44.20
28548;DHT22;15750;49.600;8.746;2022-12-11T16:46:23;12.10;44.20
28548;DHT22;15750;49.600;8.746;2022-12-11T16:48:52;12.10;44.20
28548;DHT22;15750;49.600;8.746;2022-12-11T16:51:22;12.10;44.20
28548;DHT22;15750;49.600;8.746;2022-12-11T16:53:51;12.10;44.20
28548;DHT22;15750;49.600;8.746;2022-12-11T16:56:22;12.10;44.10
28548;DHT22;15750;49.600;8.746;2022-12-11T16:58:51;12.20;44.10
28548;DHT22;15750;49.600;8.746;2022-12-11T17:01:21;12.10;44.00
28548;DHT22;15750;49.600;8.746;2022-12-11T17:03:50;12.10;44.00